createdAt,value
2022-12-18T00:01:26.485Z,13.93
2022-12-18T00:03:56.000Z,12.68
2022-12-18T00:06:26.603Z,13.43
2022-12-18T00:08:55.417Z,13.35
2022-12-18T00:11:26.245Z,15.13
2022-12-18T00:13:56.166Z,13.73
2022-12-18T00:16:25.546Z,13.88
2022-12-18T00:18:56.054Z,13.30
2022-12-18T00:21:23.560Z,15.35
2022-12-18T00:26:24.029Z,13.00
2022-12-18T00:28:56.822Z,14.43
2022-12-18T00:31:25.632Z,12.27
2022-12-18T00:33:58.495Z,13.40
2022-12-18T00:36:32.927Z,13.20
2022-12-18T00:39:01.866Z,12.90
2022-12-18T00:41:47.734Z,12.88
2022-12-18T00:44:17.865Z,13.63
2022-12-18T00:46:47.439Z,12.90
2022-12-18T00:49:17.990Z,14.82
2022-12-18T00:51:45.523Z,13.45
2022-12-18T00:56:48.365Z,13.00
2022-12-18T00:59:18.709Z,12.77
2022-12-18T01:01:47.534Z,13.15
2022-12-18T01:04:15.549Z,13.95
2022-12-18T01:06:46.370Z,13.15
2022-12-18T01:09:14.023Z,14.43
2022-12-18T01:11:41.532Z,13.90
2022-12-18T01:16:38.478Z,12.02
2022-12-18T01:19:06.044Z,12.95
2022-12-18T01:21:34.502Z,13.38
2022-12-18T01:24:06.108Z,13.85
2022-12-18T01:26:34.738Z,13.30
2022-12-18T01:29:02.228Z,11.80
2022-12-18T01:31:33.315Z,14.15
2022-12-18T01:34:05.338Z,13.90
2022-12-18T01:36:35.438Z,13.60
2022-12-18T01:39:07.582Z,13.27
2022-12-18T01:41:54.549Z,13.60
2022-12-18T01:44:59.087Z,13.60
2022-12-18T01:47:36.572Z,13.00
2022-12-18T01:50:10.295Z,14.13
2022-12-18T01:52:39.567Z,13.68
2022-12-18T01:55:08.259Z,13.95
2022-12-18T01:57:36.182Z,14.05
2022-12-18T02:00:16.164Z,13.98
2022-12-18T02:02:46.552Z,14.23
2022-12-18T02:05:20.241Z,14.55
2022-12-18T02:08:06.256Z,14.32
2022-12-18T02:10:39.529Z,13.38
2022-12-18T02:13:23.093Z,13.40
2022-12-18T02:15:50.998Z,12.80
2022-12-18T02:21:00.784Z,13.65
2022-12-18T02:23:42.424Z,12.85
2022-12-18T02:26:25.546Z,13.98
2022-12-18T02:29:01.754Z,14.68
2022-12-18T02:31:38.111Z,13.75
2022-12-18T02:34:09.022Z,13.57
2022-12-18T02:36:41.748Z,14.23
2022-12-18T02:39:12.288Z,13.10
2022-12-18T02:41:46.028Z,14.32
2022-12-18T02:44:15.511Z,12.90
2022-12-18T02:46:51.300Z,13.20
2022-12-18T02:49:37.841Z,14.35
2022-12-18T02:52:43.002Z,13.10
2022-12-18T02:55:30.946Z,14.00
2022-12-18T02:58:24.179Z,13.25
2022-12-18T03:01:10.564Z,12.88
2022-12-18T03:03:53.189Z,14.38
2022-12-18T03:06:31.556Z,12.57
2022-12-18T03:09:05.580Z,14.15
2022-12-18T03:11:57.320Z,13.52
2022-12-18T03:14:27.040Z,13.52
2022-12-18T03:16:59.992Z,13.80
2022-12-18T03:19:30.658Z,12.73
2022-12-18T03:22:03.346Z,13.20
2022-12-18T03:24:40.669Z,13.38
2022-12-18T03:27:16.756Z,13.85
2022-12-18T03:29:53.127Z,13.45
2022-12-18T03:32:30.609Z,13.20
2022-12-18T03:35:04.275Z,13.43
2022-12-18T03:37:34.956Z,13.15
2022-12-18T03:40:05.100Z,14.07
2022-12-18T03:42:46.805Z,14.57
2022-12-18T03:45:14.509Z,13.25
2022-12-18T03:47:44.834Z,13.00
2022-12-18T03:50:35.430Z,13.93
2022-12-18T03:53:30.318Z,13.25
2022-12-18T03:56:01.875Z,12.25
2022-12-18T03:58:36.791Z,13.52
2022-12-18T04:01:29.624Z,13.50
2022-12-18T04:04:01.329Z,13.18
2022-12-18T04:06:32.218Z,12.73
2022-12-18T04:09:00.239Z,13.82
2022-12-18T04:11:27.990Z,12.85
2022-12-18T04:13:59.334Z,13.00
2022-12-18T04:16:27.885Z,13.70
2022-12-18T04:18:58.444Z,13.80
2022-12-18T04:21:27.700Z,13.57
2022-12-18T04:26:24.356Z,14.27
2022-12-18T04:29:14.863Z,12.35
2022-12-18T04:31:42.995Z,11.50
2022-12-18T04:34:10.770Z,12.38
2022-12-18T04:36:44.052Z,12.88
2022-12-18T04:39:11.533Z,12.55
2022-12-18T04:41:39.125Z,13.60
2022-12-18T04:44:06.825Z,13.55
2022-12-18T04:49:01.537Z,13.07
2022-12-18T04:51:29.052Z,12.27
2022-12-18T04:56:24.130Z,13.35
2022-12-18T04:58:51.645Z,13.25
2022-12-18T05:03:47.060Z,11.93
2022-12-18T05:06:14.757Z,12.32
2022-12-18T05:08:42.162Z,13.07
2022-12-18T05:11:16.708Z,13.15
2022-12-18T05:13:45.591Z,12.43
2022-12-18T05:16:13.736Z,12.50
2022-12-18T05:18:41.869Z,12.07
2022-12-18T05:21:09.590Z,13.00
2022-12-18T05:23:37.878Z,13.40
2022-12-18T05:26:07.444Z,13.77
2022-12-18T05:28:36.631Z,12.93
2022-12-18T05:31:05.532Z,12.60
2022-12-18T05:33:35.293Z,12.27
2022-12-18T05:36:05.227Z,11.73
2022-12-18T05:38:34.639Z,13.40
2022-12-18T05:41:02.306Z,12.68
2022-12-18T05:43:30.948Z,12.85
2022-12-18T05:45:58.659Z,13.30
2022-12-18T05:48:26.176Z,12.38
2022-12-18T05:55:49.164Z,11.85
2022-12-18T05:58:17.277Z,13.07
2022-12-18T06:00:46.814Z,12.95
2022-12-18T06:03:14.783Z,13.35
2022-12-18T06:05:45.071Z,12.82
2022-12-18T06:08:14.193Z,12.52
2022-12-18T06:10:42.776Z,12.27
2022-12-18T06:13:10.427Z,12.40
2022-12-18T06:18:05.698Z,12.70
2022-12-18T06:23:01.835Z,12.32
2022-12-18T06:25:29.245Z,12.38
2022-12-18T06:30:23.909Z,11.93
2022-12-18T06:35:25.118Z,12.77
2022-12-18T06:37:52.650Z,11.23
2022-12-18T06:40:20.289Z,12.55
2022-12-18T06:42:47.939Z,12.50
2022-12-18T06:45:15.750Z,11.48
2022-12-18T06:47:43.260Z,11.23
2022-12-18T06:50:11.292Z,13.77
2022-12-18T06:52:40.076Z,13.25
2022-12-18T06:55:09.318Z,12.73
2022-12-18T06:57:37.274Z,12.82
2022-12-18T07:00:06.910Z,12.98
2022-12-18T07:02:34.721Z,12.40
2022-12-18T07:05:08.927Z,13.57
2022-12-18T07:07:36.730Z,12.05
2022-12-18T07:10:04.501Z,12.80
2022-12-18T07:12:32.043Z,12.95
2022-12-18T07:14:59.483Z,13.20
2022-12-18T07:19:54.363Z,14.02
2022-12-18T07:27:16.387Z,12.30
2022-12-18T07:32:11.521Z,12.38
2022-12-18T07:34:41.385Z,12.45
2022-12-18T07:39:36.001Z,12.45
2022-12-18T07:42:21.951Z,13.23
2022-12-18T07:47:17.947Z,12.38
2022-12-18T07:52:13.433Z,12.85
2022-12-18T07:54:44.077Z,13.68
2022-12-18T07:57:27.376Z,13.07
2022-12-18T07:59:59.674Z,13.35
2022-12-18T08:02:27.190Z,12.82
2022-12-18T08:04:55.117Z,13.73
2022-12-18T08:07:22.645Z,13.25
2022-12-18T08:09:50.138Z,14.48
2022-12-18T08:12:17.738Z,12.65
2022-12-18T08:14:45.202Z,12.95
2022-12-18T08:17:12.588Z,13.02
2022-12-18T08:19:40.597Z,13.60
2022-12-18T08:22:07.997Z,14.20
2022-12-18T08:29:50.822Z,12.80
2022-12-18T08:32:18.262Z,13.00
2022-12-18T08:37:12.937Z,13.93
2022-12-18T08:42:26.118Z,13.38
2022-12-18T08:44:53.741Z,14.07
2022-12-18T08:49:48.689Z,13.75
2022-12-18T08:57:10.562Z,14.77
2022-12-18T09:02:05.476Z,15.20
2022-12-18T09:04:33.084Z,14.68
2022-12-18T09:07:00.615Z,14.85
2022-12-18T09:14:22.660Z,14.82
2022-12-18T09:16:50.105Z,14.57
2022-12-18T09:19:17.808Z,14.15
2022-12-18T09:21:48.328Z,15.45
2022-12-18T09:24:17.519Z,14.95
2022-12-18T09:26:47.178Z,15.50
2022-12-18T09:29:16.783Z,15.48
2022-12-18T09:31:47.129Z,15.57
2022-12-18T09:34:14.717Z,15.35
2022-12-18T09:36:42.375Z,16.40
2022-12-18T09:39:11.287Z,15.50
2022-12-18T09:41:51.139Z,15.13
2022-12-18T09:44:32.184Z,14.30
2022-12-18T09:47:08.758Z,15.10
2022-12-18T09:49:43.066Z,14.85
2022-12-18T09:52:35.357Z,15.30
2022-12-18T09:55:12.477Z,15.02
2022-12-18T09:57:48.896Z,14.88
2022-12-18T10:00:20.828Z,14.98
2022-12-18T10:02:49.241Z,15.30
2022-12-18T10:05:45.211Z,15.13
2022-12-18T10:08:31.708Z,15.05
2022-12-18T10:11:15.721Z,17.15
2022-12-18T10:14:06.181Z,15.38
2022-12-18T10:17:30.498Z,16.08
2022-12-18T10:20:03.274Z,16.45
2022-12-18T10:23:02.497Z,15.70
2022-12-18T10:25:32.514Z,16.83
2022-12-18T10:28:09.864Z,16.25
2022-12-18T10:30:40.281Z,17.45
2022-12-18T10:33:22.633Z,17.55
2022-12-18T10:35:53.721Z,15.70
2022-12-18T10:38:24.810Z,16.75
2022-12-18T10:41:02.444Z,18.10
2022-12-18T10:43:38.565Z,16.60
2022-12-18T10:46:09.115Z,17.55
2022-12-18T10:48:48.593Z,17.15
2022-12-18T10:51:31.726Z,16.73
2022-12-18T10:54:22.170Z,16.63
2022-12-18T10:56:49.985Z,15.70
2022-12-18T10:59:19.380Z,16.88
2022-12-18T11:01:52.783Z,16.83
2022-12-18T11:04:29.562Z,16.27
2022-12-18T11:07:03.293Z,16.55
2022-12-18T11:09:39.517Z,15.43
2022-12-18T11:12:19.002Z,16.02
2022-12-18T11:14:54.722Z,15.15
2022-12-18T11:17:27.134Z,15.50
2022-12-18T11:19:59.090Z,15.15
2022-12-18T11:22:32.052Z,15.77
2022-12-18T11:27:59.154Z,14.52
2022-12-18T11:30:31.081Z,15.48
2022-12-18T11:33:10.978Z,17.15
2022-12-18T11:35:50.968Z,16.02
2022-12-18T11:38:26.522Z,16.02
2022-12-18T11:41:07.211Z,16.50
2022-12-18T11:43:53.694Z,14.77
2022-12-18T11:46:32.309Z,14.82
2022-12-18T11:49:08.784Z,16.30
2022-12-18T11:51:44.570Z,15.13
2022-12-18T11:54:16.605Z,15.02
2022-12-18T11:57:18.242Z,14.98
2022-12-18T12:00:07.011Z,14.23
2022-12-18T12:03:05.225Z,13.95
2022-12-18T12:05:54.494Z,13.60
2022-12-18T12:09:01.556Z,14.80
2022-12-18T12:12:07.664Z,14.70
2022-12-18T12:15:03.185Z,14.85
2022-12-18T12:17:49.456Z,15.35
2022-12-18T12:20:26.864Z,14.77
2022-12-18T12:23:01.316Z,14.55
2022-12-18T12:25:28.839Z,14.63
2022-12-18T12:31:21.426Z,14.20
2022-12-18T12:34:01.109Z,14.07
2022-12-18T12:36:47.207Z,16.00
2022-12-18T12:39:21.823Z,15.70
2022-12-18T12:42:08.148Z,15.43
2022-12-18T12:44:54.208Z,14.73
2022-12-18T12:47:37.663Z,15.45
2022-12-18T12:50:13.365Z,15.45
2022-12-18T12:52:45.573Z,15.55
2022-12-18T12:55:28.721Z,15.77
2022-12-18T12:58:03.343Z,15.15
2022-12-18T13:00:41.237Z,15.68
2022-12-18T13:03:12.441Z,16.08
2022-12-18T13:05:45.393Z,16.80
2022-12-18T13:08:28.617Z,15.90
2022-12-18T13:11:19.884Z,15.60
2022-12-18T13:13:56.217Z,16.52
2022-12-18T13:16:26.151Z,18.83
2022-12-18T13:18:57.924Z,15.52
2022-12-18T13:21:30.231Z,16.92
2022-12-18T13:24:21.256Z,16.85
2022-12-18T13:26:49.578Z,14.68
2022-12-18T13:29:46.399Z,16.08
2022-12-18T13:32:26.407Z,16.52
2022-12-18T13:35:22.040Z,16.27
2022-12-18T13:37:54.673Z,16.55
2022-12-18T13:40:41.212Z,16.50
2022-12-18T13:43:20.834Z,16.05
2022-12-18T13:46:22.337Z,17.45
2022-12-18T13:48:57.889Z,17.25
2022-12-18T13:51:27.118Z,18.38
2022-12-18T13:53:59.449Z,17.05
2022-12-18T13:56:33.198Z,16.75
2022-12-18T13:59:24.879Z,30.90
2022-12-18T14:01:58.812Z,20.27
2022-12-18T14:04:30.975Z,17.33
2022-12-18T14:07:13.930Z,17.77
2022-12-18T14:09:47.183Z,16.25
2022-12-18T14:12:45.288Z,17.10
2022-12-18T14:15:43.681Z,16.85
2022-12-18T14:18:25.576Z,15.85
2022-12-18T14:20:59.428Z,16.15
2022-12-18T14:23:40.740Z,16.10
2022-12-18T14:26:29.065Z,14.98
2022-12-18T14:28:58.171Z,15.38
2022-12-18T14:31:27.842Z,16.10
2022-12-18T14:33:55.396Z,15.52
2022-12-18T14:38:59.633Z,14.82
2022-12-18T14:41:28.939Z,14.98
2022-12-18T14:44:05.999Z,15.85
2022-12-18T14:46:33.877Z,15.18
2022-12-18T14:49:04.606Z,16.08
2022-12-18T14:51:34.728Z,15.13
2022-12-18T14:54:05.423Z,15.48
2022-12-18T14:56:35.060Z,15.77
2022-12-18T14:59:05.920Z,16.13
2022-12-18T15:01:38.175Z,16.05
2022-12-18T15:04:24.169Z,16.73
2022-12-18T15:07:04.861Z,16.42
2022-12-18T15:09:32.615Z,14.52
2022-12-18T15:12:01.859Z,14.23
2022-12-18T15:14:35.940Z,14.82
2022-12-18T15:17:08.199Z,14.75
2022-12-18T15:19:43.821Z,15.35
2022-12-18T15:22:24.495Z,15.20
2022-12-18T15:24:52.916Z,14.43
2022-12-18T15:27:23.550Z,15.80
2022-12-18T15:30:25.116Z,14.90
2022-12-18T15:32:54.161Z,14.82
2022-12-18T15:35:26.267Z,15.65
2022-12-18T15:37:53.865Z,13.95
2022-12-18T15:43:14.702Z,13.27
2022-12-18T15:45:42.215Z,13.70
2022-12-18T15:58:29.142Z,12.02
2022-12-18T16:00:59.723Z,12.10
2022-12-18T16:03:27.215Z,11.85
2022-12-18T16:08:23.838Z,12.43
2022-12-18T16:13:20.671Z,10.98
2022-12-18T16:15:48.400Z,11.18
2022-12-18T16:18:16.105Z,11.13
2022-12-18T16:20:43.689Z,11.52
2022-12-18T16:23:11.236Z,10.70
2022-12-18T16:28:06.298Z,10.70
2022-12-18T16:30:38.484Z,11.18
2022-12-18T16:33:07.698Z,11.07
2022-12-18T16:35:38.090Z,10.85
2022-12-18T16:38:05.828Z,10.20
2022-12-18T16:40:34.063Z,10.20
2022-12-18T16:43:01.557Z,9.73
2022-12-18T16:48:01.612Z,9.60
2022-12-18T16:50:29.069Z,11.65
2022-12-18T16:55:23.768Z,8.68
2022-12-18T17:05:14.858Z,9.63
2022-12-18T17:07:42.305Z,8.98
2022-12-18T17:10:10.319Z,9.07
2022-12-18T17:12:37.777Z,9.43
2022-12-18T17:15:05.633Z,8.73
2022-12-18T17:17:33.125Z,9.35
2022-12-18T17:20:00.913Z,9.05
2022-12-18T17:27:23.039Z,9.98
2022-12-18T17:29:50.454Z,7.93
2022-12-18T17:34:45.922Z,7.80
2022-12-18T17:37:13.833Z,7.50
2022-12-18T17:39:42.090Z,8.30
2022-12-18T17:42:15.271Z,7.35
2022-12-18T17:44:43.786Z,7.75
2022-12-18T17:47:13.153Z,7.93
2022-12-18T17:49:40.892Z,8.13
2022-12-18T17:52:08.539Z,7.80
2022-12-18T17:54:39.648Z,6.85
2022-12-18T17:57:07.506Z,6.90
2022-12-18T17:59:35.127Z,6.90
2022-12-18T18:02:03.008Z,8.95
2022-12-18T18:04:30.796Z,6.70
2022-12-18T18:06:58.359Z,7.50
2022-12-18T18:12:11.471Z,7.18
2022-12-18T18:14:39.228Z,7.40
2022-12-18T18:17:06.732Z,7.28
2022-12-18T18:22:03.015Z,7.40
2022-12-18T18:24:31.275Z,8.88
2022-12-18T18:27:01.774Z,8.07
2022-12-18T18:29:32.944Z,7.43
2022-12-18T18:32:01.101Z,7.28
2022-12-18T18:34:31.008Z,6.97
2022-12-18T18:36:59.233Z,7.38
2022-12-18T18:39:27.025Z,7.35
2022-12-18T18:41:54.615Z,6.90
2022-12-18T18:44:22.839Z,6.85
2022-12-18T18:46:57.858Z,6.90
2022-12-18T18:49:27.905Z,8.25
2022-12-18T18:51:57.461Z,6.22
2022-12-18T18:54:25.900Z,7.35
2022-12-18T18:57:19.290Z,7.82
2022-12-18T18:59:42.070Z,7.22
2022-12-18T19:02:13.027Z,7.63
2022-12-18T19:04:44.754Z,7.32
2022-12-18T19:07:28.119Z,6.78
2022-12-18T19:10:03.855Z,6.82
2022-12-18T19:12:52.605Z,7.15
2022-12-18T19:15:21.750Z,7.47
2022-12-18T19:17:49.315Z,6.80
2022-12-18T19:20:16.905Z,8.52
2022-12-18T19:22:55.073Z,8.05
2022-12-18T19:25:40.043Z,12.50
2022-12-18T19:28:13.245Z,6.60
2022-12-18T19:30:52.452Z,6.50
2022-12-18T19:33:42.425Z,6.68
2022-12-18T19:36:22.429Z,6.65
2022-12-18T19:38:51.982Z,7.00
2022-12-18T19:41:20.780Z,6.22
2022-12-18T19:43:49.325Z,6.47
2022-12-18T19:46:19.401Z,7.03
2022-12-18T19:48:47.939Z,7.22
2022-12-18T19:51:19.215Z,8.38
2022-12-18T19:53:47.928Z,6.63
2022-12-18T19:56:18.482Z,7.80
2022-12-18T19:58:46.140Z,6.15
2022-12-18T20:01:15.896Z,6.20
2022-12-18T20:03:51.407Z,8.52
2022-12-18T20:06:29.041Z,7.03
2022-12-18T20:09:00.532Z,5.35
2022-12-18T20:11:30.158Z,5.03
2022-12-18T20:13:58.647Z,4.78
2022-12-18T20:16:26.251Z,5.75
2022-12-18T20:18:55.570Z,5.43
2022-12-18T20:21:24.144Z,5.30
2022-12-18T20:23:51.828Z,5.10
2022-12-18T20:26:19.609Z,5.43
2022-12-18T20:28:47.006Z,5.72
2022-12-18T20:31:14.528Z,5.35
2022-12-18T20:36:16.385Z,4.95
2022-12-18T20:38:48.838Z,5.05
2022-12-18T20:41:19.948Z,5.40
2022-12-18T20:43:49.565Z,5.75
2022-12-18T20:46:17.588Z,5.32
2022-12-18T20:48:45.295Z,5.13
2022-12-18T20:51:15.738Z,4.78
2022-12-18T20:53:43.834Z,5.20
2022-12-18T20:56:21.541Z,4.55
2022-12-18T20:58:50.486Z,4.63
2022-12-18T21:01:23.768Z,4.40
2022-12-18T21:03:52.395Z,4.50
2022-12-18T21:06:22.570Z,4.60
2022-12-18T21:08:50.791Z,4.60
2022-12-18T21:11:39.738Z,4.53
2022-12-18T21:14:14.963Z,3.83
2022-12-18T21:16:46.463Z,4.10
2022-12-18T21:19:19.859Z,4.22
2022-12-18T21:21:47.519Z,4.38
2022-12-18T21:24:15.150Z,4.00
2022-12-18T21:26:45.852Z,4.25
2022-12-18T21:29:16.772Z,4.07
2022-12-18T21:31:46.159Z,3.90
2022-12-18T21:34:18.407Z,4.68
2022-12-18T21:36:46.551Z,4.10
2022-12-18T21:39:15.159Z,3.95
2022-12-18T21:42:01.279Z,4.05
2022-12-18T21:44:29.012Z,3.88
2022-12-18T21:47:03.560Z,4.28
2022-12-18T21:49:36.996Z,4.25
2022-12-18T21:54:31.685Z,4.20
2022-12-18T21:59:34.981Z,4.03
2022-12-18T22:02:05.468Z,4.22
2022-12-18T22:04:33.087Z,3.97
2022-12-18T22:07:01.243Z,4.10
2022-12-18T22:09:28.820Z,4.20
2022-12-18T22:11:56.319Z,4.30
2022-12-18T22:16:52.561Z,3.90
2022-12-18T22:19:20.988Z,4.45
2022-12-18T22:21:49.674Z,3.88
2022-12-18T22:24:19.683Z,4.63
2022-12-18T22:26:48.372Z,6.00
2022-12-18T22:29:39.703Z,4.22
2022-12-18T22:32:10.591Z,4.20
2022-12-18T22:34:39.746Z,3.80
2022-12-18T22:37:07.268Z,4.40
2022-12-18T22:39:34.886Z,4.00
2022-12-18T22:42:02.765Z,3.92
2022-12-18T22:47:07.001Z,3.83
2022-12-18T22:49:35.934Z,3.92
2022-12-18T22:52:04.976Z,4.50
2022-12-18T22:54:33.549Z,4.18
2022-12-18T22:57:01.096Z,4.20
2022-12-18T22:59:28.525Z,4.50
2022-12-18T23:04:33.435Z,3.95
2022-12-18T23:07:05.852Z,4.65
2022-12-18T23:09:33.661Z,3.88
2022-12-18T23:12:01.882Z,4.68
2022-12-18T23:14:30.003Z,4.32
2022-12-18T23:16:57.953Z,4.00
2022-12-18T23:19:25.670Z,4.80
2022-12-18T23:21:54.517Z,4.50
2022-12-18T23:24:26.374Z,4.90
2022-12-18T23:26:54.070Z,7.43
2022-12-18T23:29:21.896Z,6.95
2022-12-18T23:31:49.335Z,6.88
2022-12-18T23:34:18.021Z,5.72
2022-12-18T23:36:46.956Z,6.60
2022-12-18T23:39:28.862Z,5.72
2022-12-18T23:41:58.911Z,5.00
2022-12-18T23:44:26.489Z,4.85
2022-12-18T23:46:54.042Z,4.32
2022-12-18T23:49:21.567Z,6.88
2022-12-18T23:51:49.481Z,6.25
2022-12-18T23:54:17.248Z,5.00
2022-12-18T23:56:49.847Z,3.92
